createdAt,value
2022-11-05T00:00:59.223Z,16.60
2022-11-05T00:01:59.305Z,15.60
2022-11-05T00:02:59.136Z,17.00
2022-11-05T00:03:59.194Z,17.20
2022-11-05T00:04:59.300Z,17.40
2022-11-05T00:05:59.089Z,15.20
2022-11-05T00:06:59.095Z,19.10
2022-11-05T00:07:59.061Z,18.20
2022-11-05T00:08:59.030Z,16.10
2022-11-05T00:09:59.018Z,16.20
2022-11-05T00:10:59.268Z,16.50
2022-11-05T00:11:59.049Z,19.20
2022-11-05T00:12:58.973Z,15.90
2022-11-05T00:13:58.948Z,16.70
2022-11-05T00:14:58.943Z,17.30
2022-11-05T00:15:58.912Z,16.20
2022-11-05T00:16:59.122Z,15.50
2022-11-05T00:17:59.062Z,14.60
2022-11-05T00:18:58.954Z,18.00
2022-11-05T00:19:58.854Z,14.90
2022-11-05T00:20:58.837Z,18.20
2022-11-05T00:21:58.911Z,17.20
2022-11-05T00:22:58.798Z,16.80
2022-11-05T00:23:58.767Z,17.50
2022-11-05T00:24:58.765Z,18.00
2022-11-05T00:25:58.734Z,19.00
2022-11-05T00:26:58.765Z,17.80
2022-11-05T00:27:58.705Z,17.30
2022-11-05T00:28:58.735Z,23.60
2022-11-05T00:29:58.833Z,21.20
2022-11-05T00:30:58.653Z,19.70
2022-11-05T00:31:58.678Z,18.80
2022-11-05T00:32:58.638Z,20.00
2022-11-05T00:33:58.651Z,20.80
2022-11-05T00:34:58.583Z,20.60
2022-11-05T00:35:58.579Z,17.30
2022-11-05T00:36:58.588Z,18.20
2022-11-05T00:37:58.542Z,20.80
2022-11-05T00:38:58.518Z,21.00
2022-11-05T00:39:59.992Z,20.90
2022-11-05T00:40:58.722Z,20.40
2022-11-05T00:41:58.504Z,18.10
2022-11-05T00:42:58.461Z,19.00
2022-11-05T00:43:58.834Z,19.20
2022-11-05T00:44:58.553Z,20.20
2022-11-05T00:45:58.427Z,19.90
2022-11-05T00:46:59.929Z,20.80
2022-11-05T00:47:59.912Z,17.50
2022-11-05T00:48:58.361Z,19.90
2022-11-05T00:49:59.986Z,20.20
2022-11-05T00:50:58.324Z,19.00
2022-11-05T00:51:58.413Z,18.50
2022-11-05T00:52:58.287Z,20.60
2022-11-05T00:53:58.331Z,20.40
2022-11-05T00:54:58.251Z,19.60
2022-11-05T00:55:58.226Z,20.80
2022-11-05T00:57:03.417Z,18.50
2022-11-05T00:58:00.207Z,19.60
2022-11-05T00:58:58.182Z,18.60
2022-11-05T00:59:58.175Z,20.40
2022-11-05T01:00:58.151Z,20.20
2022-11-05T01:01:58.365Z,20.60
2022-11-05T01:02:59.884Z,22.00
2022-11-05T01:03:58.138Z,20.70
2022-11-05T01:04:58.285Z,21.60
2022-11-05T01:05:58.065Z,22.10
2022-11-05T01:06:58.091Z,22.60
2022-11-05T01:07:58.034Z,21.50
2022-11-05T01:08:58.019Z,22.20
2022-11-05T01:09:58.014Z,21.60
2022-11-05T01:10:57.983Z,18.10
2022-11-05T01:11:58.018Z,20.50
2022-11-05T01:12:57.957Z,20.10
2022-11-05T01:13:57.934Z,20.80
2022-11-05T01:14:58.036Z,22.70
2022-11-05T01:15:57.896Z,20.10
2022-11-05T01:16:57.911Z,18.80
2022-11-05T01:17:57.986Z,18.60
2022-11-05T01:18:57.848Z,21.30
2022-11-05T01:19:57.823Z,20.10
2022-11-05T01:20:57.812Z,21.30
2022-11-05T01:21:57.820Z,20.10
2022-11-05T01:22:57.805Z,20.10
2022-11-05T01:23:57.757Z,20.90
2022-11-05T01:24:57.738Z,21.80
2022-11-05T01:25:57.727Z,23.10
2022-11-05T01:26:57.755Z,21.70
2022-11-05T01:27:57.794Z,21.70
2022-11-05T01:28:57.719Z,24.20
2022-11-05T01:29:57.684Z,22.30
2022-11-05T01:30:57.770Z,22.90
2022-11-05T01:31:57.649Z,22.70
2022-11-05T01:32:57.618Z,23.30
2022-11-05T01:33:57.597Z,23.00
2022-11-05T01:34:57.573Z,21.80
2022-11-05T01:35:57.553Z,22.20
2022-11-05T01:36:57.565Z,23.50
2022-11-05T01:37:57.729Z,20.90
2022-11-05T01:38:57.500Z,24.80
2022-11-05T01:39:57.491Z,23.20
2022-11-05T01:40:57.496Z,25.30
2022-11-05T01:41:57.924Z,22.80
2022-11-05T01:42:57.442Z,23.50
2022-11-05T01:43:57.419Z,21.70
2022-11-05T01:44:57.416Z,22.40
2022-11-05T01:45:57.400Z,23.00
2022-11-05T01:46:57.401Z,18.90
2022-11-05T01:47:57.518Z,26.20
2022-11-05T01:49:02.749Z,22.10
2022-11-05T01:49:59.317Z,21.50
2022-11-05T01:50:57.303Z,22.00
2022-11-05T01:51:57.325Z,20.40
2022-11-05T01:52:57.265Z,23.40
2022-11-05T01:53:57.246Z,23.70
2022-11-05T01:54:57.227Z,22.20
2022-11-05T01:55:57.205Z,25.30
2022-11-05T01:56:57.224Z,20.40
2022-11-05T01:57:57.168Z,20.40
2022-11-05T01:58:57.151Z,20.30
2022-11-05T01:59:58.811Z,21.60
2022-11-05T02:00:57.118Z,20.80
2022-11-05T02:01:57.192Z,21.60
2022-11-05T02:02:57.161Z,22.10
2022-11-05T02:03:57.063Z,23.30
2022-11-05T02:04:57.046Z,22.30
2022-11-05T02:05:57.053Z,22.80
2022-11-05T02:06:57.062Z,24.80
2022-11-05T02:07:57.013Z,26.10
2022-11-05T02:08:57.025Z,22.50
2022-11-05T02:09:56.973Z,22.00
2022-11-05T02:10:56.946Z,24.20
2022-11-05T02:11:56.959Z,24.40
2022-11-05T02:12:56.907Z,25.50
2022-11-05T02:13:56.896Z,23.60
2022-11-05T02:14:56.872Z,24.30
2022-11-05T02:15:56.938Z,28.60
2022-11-05T02:16:57.132Z,25.40
2022-11-05T02:17:56.828Z,28.20
2022-11-05T02:18:56.806Z,25.30
2022-11-05T02:19:57.145Z,25.70
2022-11-05T02:20:56.845Z,28.60
2022-11-05T02:21:57.493Z,28.80
2022-11-05T02:22:57.037Z,29.70
2022-11-05T02:23:56.730Z,29.70
2022-11-05T02:24:56.739Z,26.80
2022-11-05T02:25:56.679Z,27.30
2022-11-05T02:26:56.716Z,27.30
2022-11-05T02:27:56.655Z,30.80
2022-11-05T02:28:56.810Z,27.80
2022-11-05T02:29:56.696Z,28.50
2022-11-05T02:30:56.604Z,31.70
2022-11-05T02:31:56.615Z,24.70
2022-11-05T02:32:56.697Z,26.50
2022-11-05T02:33:56.544Z,29.90
2022-11-05T02:34:56.544Z,27.20
2022-11-05T02:35:57.048Z,27.00
2022-11-05T02:36:56.626Z,26.60
2022-11-05T02:37:56.473Z,27.60
2022-11-05T02:38:56.458Z,29.00
2022-11-05T02:39:56.467Z,27.90
2022-11-05T02:40:56.429Z,24.70
2022-11-05T02:41:59.287Z,26.10
2022-11-05T02:42:58.818Z,31.70
2022-11-05T02:43:56.393Z,28.60
2022-11-05T02:44:56.354Z,30.80
2022-11-05T02:45:56.520Z,27.50
2022-11-05T02:46:56.350Z,28.10
2022-11-05T02:47:56.376Z,30.60
2022-11-05T02:48:56.299Z,29.30
2022-11-05T02:49:56.307Z,29.60
2022-11-05T02:50:56.253Z,30.60
2022-11-05T02:51:56.265Z,28.70
2022-11-05T02:52:56.224Z,27.70
2022-11-05T02:53:56.204Z,29.50
2022-11-05T02:54:56.183Z,30.00
2022-11-05T02:55:56.166Z,29.10
2022-11-05T02:56:56.189Z,30.90
2022-11-05T02:57:56.129Z,33.00
2022-11-05T02:58:56.123Z,27.80
2022-11-05T02:59:56.099Z,33.00
2022-11-05T03:00:56.099Z,26.50
2022-11-05T03:01:56.259Z,35.80
2022-11-05T03:02:56.133Z,30.20
2022-11-05T03:03:56.036Z,30.30
2022-11-05T03:04:56.020Z,34.00
2022-11-05T03:05:56.003Z,30.10
2022-11-05T03:06:55.984Z,29.70
2022-11-05T03:07:56.006Z,32.40
2022-11-05T03:08:55.968Z,29.10
2022-11-05T03:09:55.942Z,30.40
2022-11-05T03:10:55.917Z,33.10
2022-11-05T03:11:55.934Z,28.20
2022-11-05T03:12:55.875Z,35.20
2022-11-05T03:13:55.878Z,34.00
2022-11-05T03:14:55.842Z,29.60
2022-11-05T03:15:55.838Z,33.50
2022-11-05T03:16:55.806Z,32.70
2022-11-05T03:17:55.824Z,30.00
2022-11-05T03:18:55.770Z,32.70
2022-11-05T03:19:55.780Z,32.90
2022-11-05T03:20:55.739Z,31.30
2022-11-05T03:21:55.767Z,33.20
2022-11-05T03:22:55.900Z,33.50
2022-11-05T03:23:55.690Z,33.70
2022-11-05T03:24:55.675Z,35.00
2022-11-05T03:25:55.658Z,35.20
2022-11-05T03:26:55.636Z,36.60
2022-11-05T03:27:55.645Z,34.90
2022-11-05T03:28:55.603Z,35.90
2022-11-05T03:29:55.584Z,35.60
2022-11-05T03:30:55.565Z,34.70
2022-11-05T03:31:55.544Z,34.80
2022-11-05T03:32:55.555Z,39.60
2022-11-05T03:33:55.506Z,35.70
2022-11-05T03:34:55.488Z,35.70
2022-11-05T03:35:55.476Z,41.30
2022-11-05T03:36:55.457Z,37.00
2022-11-05T03:37:55.481Z,35.10
2022-11-05T03:38:55.443Z,40.50
2022-11-05T03:39:55.405Z,40.00
2022-11-05T03:40:55.644Z,38.20
2022-11-05T03:41:55.370Z,36.40
2022-11-05T03:42:55.412Z,39.80
2022-11-05T03:43:55.342Z,38.70
2022-11-05T03:44:55.316Z,40.80
2022-11-05T03:45:56.314Z,38.80
2022-11-05T03:46:55.302Z,36.80
2022-11-05T03:47:55.306Z,43.70
2022-11-05T03:48:55.364Z,38.30
2022-11-05T03:49:55.230Z,35.70
2022-11-05T03:50:55.215Z,41.00
2022-11-05T03:51:55.198Z,41.10
2022-11-05T03:52:55.218Z,40.20
2022-11-05T03:53:55.596Z,39.20
2022-11-05T03:54:56.154Z,45.20
2022-11-05T03:55:55.125Z,39.80
2022-11-05T03:56:55.108Z,44.60
2022-11-05T03:57:55.137Z,40.20
2022-11-05T03:58:58.929Z,45.70
2022-11-05T03:59:56.053Z,45.60
2022-11-05T04:00:55.040Z,44.30
2022-11-05T04:01:55.222Z,44.70
2022-11-05T04:02:55.210Z,40.90
2022-11-05T04:03:54.995Z,46.60
2022-11-05T04:04:54.970Z,43.90
2022-11-05T04:05:54.960Z,41.30
2022-11-05T04:06:54.932Z,37.90
2022-11-05T04:07:54.946Z,44.60
2022-11-05T04:08:54.904Z,46.70
2022-11-05T04:09:54.888Z,49.60
2022-11-05T04:10:54.862Z,46.00
2022-11-05T04:11:54.847Z,45.50
2022-11-05T04:12:54.867Z,52.90
2022-11-05T04:13:55.418Z,50.10
2022-11-05T04:14:54.812Z,47.40
2022-11-05T04:15:54.784Z,44.90
2022-11-05T04:16:54.867Z,45.10
2022-11-05T04:17:54.855Z,40.40
2022-11-05T04:18:54.736Z,43.70
2022-11-05T04:19:54.722Z,41.30
2022-11-05T04:20:54.708Z,39.90
2022-11-05T04:21:54.676Z,39.30
2022-11-05T04:22:54.702Z,38.80
2022-11-05T04:23:54.656Z,37.60
2022-11-05T04:24:54.636Z,39.80
2022-11-05T04:25:54.609Z,40.10
2022-11-05T04:26:54.602Z,39.50
2022-11-05T04:27:54.599Z,39.30
2022-11-05T04:28:54.569Z,37.50
2022-11-05T04:29:54.571Z,35.80
2022-11-05T04:30:54.524Z,35.10
2022-11-05T04:31:54.534Z,32.40
2022-11-05T04:32:54.532Z,33.90
2022-11-05T04:33:54.468Z,33.40
2022-11-05T04:34:54.455Z,34.90
2022-11-05T04:35:54.463Z,36.50
2022-11-05T04:36:54.417Z,32.50
2022-11-05T04:37:54.431Z,36.00
2022-11-05T04:38:54.382Z,37.30
2022-11-05T04:39:54.375Z,34.50
2022-11-05T04:40:54.366Z,34.10
2022-11-05T04:41:54.420Z,34.20
2022-11-05T04:42:54.348Z,34.80
2022-11-05T04:43:54.312Z,33.40
2022-11-05T04:44:54.297Z,34.00
2022-11-05T04:45:54.278Z,38.10
2022-11-05T04:46:54.271Z,37.90
2022-11-05T04:47:54.268Z,40.80
2022-11-05T04:48:54.266Z,40.60
2022-11-05T04:49:54.192Z,38.00
2022-11-05T04:50:54.196Z,36.30
2022-11-05T04:51:54.172Z,41.20
2022-11-05T04:52:54.183Z,36.10
2022-11-05T04:53:54.132Z,33.00
2022-11-05T04:54:54.121Z,38.10
2022-11-05T04:55:54.096Z,34.50
2022-11-05T04:56:54.082Z,30.70
2022-11-05T04:57:54.088Z,37.30
2022-11-05T04:58:54.040Z,31.90
2022-11-05T04:59:54.032Z,30.90
2022-11-05T05:00:54.081Z,33.20
2022-11-05T05:01:54.019Z,32.60
2022-11-05T05:02:54.020Z,35.50
2022-11-05T05:03:53.974Z,35.70
2022-11-05T05:04:53.935Z,32.20
2022-11-05T05:05:54.230Z,34.40
2022-11-05T05:06:54.907Z,35.20
2022-11-05T05:07:53.919Z,32.30
2022-11-05T05:08:53.870Z,34.20
2022-11-05T05:09:53.843Z,39.50
2022-11-05T05:10:53.837Z,35.50
2022-11-05T05:11:53.826Z,33.80
2022-11-05T05:12:53.828Z,35.40
2022-11-05T05:13:53.787Z,35.60
2022-11-05T05:14:53.764Z,31.70
2022-11-05T05:15:53.748Z,34.70
2022-11-05T05:16:53.719Z,34.60
2022-11-05T05:17:53.733Z,33.80
2022-11-05T05:18:53.696Z,34.00
2022-11-05T05:19:53.685Z,37.70
2022-11-05T05:20:53.662Z,35.20
2022-11-05T05:21:53.637Z,35.70
2022-11-05T05:22:53.649Z,32.30
2022-11-05T05:23:53.605Z,34.40
2022-11-05T05:24:53.591Z,34.80
2022-11-05T05:25:53.563Z,31.30
2022-11-05T05:26:53.568Z,36.00
2022-11-05T05:27:53.526Z,35.30
2022-11-05T05:28:53.529Z,38.20
2022-11-05T05:29:53.499Z,37.30
2022-11-05T05:30:58.502Z,34.30
2022-11-05T05:31:55.511Z,39.20
2022-11-05T05:32:53.436Z,39.40
2022-11-05T05:33:54.430Z,39.30
2022-11-05T05:34:53.415Z,41.30
2022-11-05T05:35:53.400Z,34.90
2022-11-05T05:36:53.431Z,37.80
2022-11-05T05:37:53.350Z,41.40
2022-11-05T05:38:53.335Z,39.50
2022-11-05T05:39:53.311Z,36.70
2022-11-05T05:40:53.306Z,37.60
2022-11-05T05:41:53.314Z,40.80
2022-11-05T05:42:53.271Z,38.50
2022-11-05T05:43:53.354Z,38.60
2022-11-05T05:44:53.230Z,39.20
2022-11-05T05:45:53.200Z,39.70
2022-11-05T05:46:53.225Z,39.50
2022-11-05T05:47:53.191Z,43.70
2022-11-05T05:48:53.156Z,41.90
2022-11-05T05:49:53.138Z,39.80
2022-11-05T05:50:53.118Z,43.20
2022-11-05T05:51:53.143Z,47.10
2022-11-05T05:52:53.087Z,45.20
2022-11-05T05:54:31.723Z,42.60
2022-11-05T05:54:54.056Z,43.00
2022-11-05T05:55:53.055Z,42.60
2022-11-05T05:56:53.132Z,40.00
2022-11-05T05:57:53.030Z,45.00
2022-11-05T05:58:53.029Z,47.00
2022-11-05T05:59:52.979Z,47.50
2022-11-05T06:00:52.956Z,41.80
2022-11-05T06:01:53.061Z,41.90
2022-11-05T06:02:52.994Z,41.60
2022-11-05T06:03:52.916Z,44.10
2022-11-05T06:04:53.021Z,43.30
2022-11-05T06:05:52.870Z,43.30
2022-11-05T06:06:52.881Z,38.00
2022-11-05T06:07:52.831Z,40.20
2022-11-05T06:08:52.816Z,37.10
2022-11-05T06:09:52.799Z,38.60
2022-11-05T06:10:52.863Z,43.70
2022-11-05T06:11:52.788Z,42.40
2022-11-05T06:12:52.757Z,39.30
2022-11-05T06:13:52.729Z,39.00
2022-11-05T06:14:52.740Z,46.60
2022-11-05T06:15:52.692Z,37.90
2022-11-05T06:16:52.745Z,42.90
2022-11-05T06:17:52.648Z,41.00
2022-11-05T06:18:52.647Z,37.10
2022-11-05T06:19:52.618Z,43.30
2022-11-05T06:20:52.612Z,40.40
2022-11-05T06:21:52.619Z,41.00
2022-11-05T06:22:52.574Z,49.30
2022-11-05T06:23:52.580Z,39.70
2022-11-05T06:24:52.548Z,38.60
2022-11-05T06:25:52.521Z,36.40
2022-11-05T06:26:52.529Z,38.00
2022-11-05T06:27:52.494Z,39.50
2022-11-05T06:28:52.470Z,38.80
2022-11-05T06:29:52.446Z,39.00
2022-11-05T06:30:52.439Z,40.00
2022-11-05T06:31:52.453Z,43.20
2022-11-05T06:32:52.413Z,40.40
2022-11-05T06:33:52.396Z,47.40
2022-11-05T06:34:52.361Z,40.70
2022-11-05T06:35:52.358Z,37.50
2022-11-05T06:36:52.366Z,42.60
2022-11-05T06:37:52.318Z,41.50
2022-11-05T06:38:52.291Z,40.10
2022-11-05T06:39:52.281Z,35.40
2022-11-05T06:40:52.264Z,50.10
2022-11-05T06:42:16.781Z,52.80
2022-11-05T06:42:54.281Z,49.30
2022-11-05T06:43:52.221Z,37.80
2022-11-05T06:44:52.184Z,51.20
2022-11-05T06:45:52.181Z,42.10
2022-11-05T06:46:52.159Z,40.80
2022-11-05T06:47:52.367Z,45.20
2022-11-05T06:48:52.118Z,39.60
2022-11-05T06:49:52.101Z,37.80
2022-11-05T06:50:52.092Z,46.10
2022-11-05T06:51:52.066Z,40.80
2022-11-05T06:52:52.081Z,41.00
2022-11-05T06:53:52.087Z,43.40
2022-11-05T06:54:52.024Z,41.50
2022-11-05T06:55:52.005Z,38.70
2022-11-05T06:56:51.994Z,34.30
2022-11-05T06:57:52.160Z,33.00
2022-11-05T06:58:51.949Z,34.30
2022-11-05T06:59:55.723Z,32.70
2022-11-05T07:00:53.989Z,33.60
2022-11-05T07:01:52.017Z,35.90
2022-11-05T07:02:51.920Z,33.40
2022-11-05T07:03:51.864Z,32.60
2022-11-05T07:04:51.867Z,33.30
2022-11-05T07:05:51.818Z,34.00
2022-11-05T07:06:51.805Z,32.60
2022-11-05T07:07:51.825Z,33.90
2022-11-05T07:08:51.781Z,32.80
2022-11-05T07:09:51.772Z,31.10
2022-11-05T07:10:51.757Z,29.50
2022-11-05T07:11:51.738Z,27.60
2022-11-05T07:12:51.744Z,28.90
2022-11-05T07:13:51.860Z,27.00
2022-11-05T07:14:51.676Z,29.10
2022-11-05T07:15:51.697Z,27.20
2022-11-05T07:16:51.640Z,24.60
2022-11-05T07:17:51.648Z,21.20
2022-11-05T07:18:51.623Z,18.90
2022-11-05T07:19:51.594Z,21.60
2022-11-05T07:20:51.612Z,21.80
2022-11-05T07:21:51.559Z,20.30
2022-11-05T07:22:51.585Z,24.30
2022-11-05T07:23:51.514Z,22.40
2022-11-05T07:24:51.498Z,30.80
2022-11-05T07:25:51.493Z,21.10
2022-11-05T07:26:51.473Z,21.60
2022-11-05T07:27:51.491Z,21.70
2022-11-05T07:28:51.642Z,18.90
2022-11-05T07:29:51.483Z,17.00
2022-11-05T07:30:51.409Z,19.30
2022-11-05T07:31:51.604Z,19.80
2022-11-05T07:32:51.726Z,20.60
2022-11-05T07:33:51.356Z,18.90
2022-11-05T07:34:51.328Z,19.80
2022-11-05T07:35:51.332Z,17.60
2022-11-05T07:36:51.371Z,16.20
2022-11-05T07:37:51.306Z,17.00
2022-11-05T07:38:53.894Z,17.80
2022-11-05T07:39:52.237Z,18.80
2022-11-05T07:40:51.225Z,17.90
2022-11-05T07:41:51.216Z,18.30
2022-11-05T07:42:51.227Z,16.00
2022-11-05T07:43:51.164Z,15.90
2022-11-05T07:44:51.154Z,18.70
2022-11-05T07:45:51.271Z,18.30
2022-11-05T07:46:51.114Z,18.10
2022-11-05T07:47:51.127Z,20.20
2022-11-05T07:48:51.084Z,17.30
2022-11-05T07:49:51.073Z,17.20
2022-11-05T07:50:51.046Z,15.70
2022-11-05T07:51:51.034Z,14.50
2022-11-05T07:52:51.044Z,16.70
2022-11-05T07:53:51.137Z,17.30
2022-11-05T07:54:50.982Z,14.70
2022-11-05T07:55:51.299Z,13.70
2022-11-05T07:56:50.976Z,12.80
2022-11-05T07:57:50.956Z,12.10
2022-11-05T07:58:50.911Z,14.20
2022-11-05T07:59:50.894Z,13.00
2022-11-05T08:00:50.990Z,16.60
2022-11-05T08:01:51.049Z,14.90
2022-11-05T08:02:51.140Z,17.00
2022-11-05T08:03:50.839Z,16.10
2022-11-05T08:04:50.941Z,16.50
2022-11-05T08:05:50.801Z,16.00
2022-11-05T08:06:50.792Z,14.10
2022-11-05T08:07:51.077Z,14.80
2022-11-05T08:08:50.751Z,13.10
2022-11-05T08:09:50.730Z,13.80
2022-11-05T08:10:50.708Z,14.20
2022-11-05T08:11:53.042Z,12.90
2022-11-05T08:12:51.714Z,13.30
2022-11-05T08:13:50.896Z,14.90
2022-11-05T08:14:50.639Z,13.50
2022-11-05T08:15:50.639Z,14.60
2022-11-05T08:16:50.612Z,12.30
2022-11-05T08:17:50.626Z,11.50
2022-11-05T08:18:50.579Z,10.70
2022-11-05T08:19:50.571Z,13.60
2022-11-05T08:20:50.539Z,11.90
2022-11-05T08:21:50.527Z,11.20
2022-11-05T08:22:50.540Z,12.00
2022-11-05T08:23:50.491Z,11.30
2022-11-05T08:24:50.502Z,10.90
2022-11-05T08:25:50.456Z,10.20
2022-11-05T08:26:50.441Z,8.40
2022-11-05T08:27:50.465Z,10.20
2022-11-05T08:28:50.607Z,10.90
2022-11-05T08:29:50.536Z,9.60
2022-11-05T08:30:50.507Z,9.70
2022-11-05T08:31:50.360Z,9.30
2022-11-05T08:32:50.379Z,10.60
2022-11-05T08:33:50.326Z,10.20
2022-11-05T08:34:50.334Z,11.30
2022-11-05T08:35:50.495Z,8.90
2022-11-05T08:36:50.280Z,10.40
2022-11-05T08:37:50.295Z,10.80
2022-11-05T08:38:50.388Z,11.70
2022-11-05T08:39:50.246Z,10.20
2022-11-05T08:40:50.251Z,10.80
2022-11-05T08:41:50.213Z,11.20
2022-11-05T08:42:50.233Z,12.00
2022-11-05T08:43:50.329Z,10.90
2022-11-05T08:44:50.199Z,11.00
2022-11-05T08:45:50.153Z,12.00
2022-11-05T08:46:50.140Z,9.20
2022-11-05T08:47:50.141Z,9.50
2022-11-05T08:48:50.113Z,9.30
2022-11-05T08:49:50.074Z,9.90
2022-11-05T08:50:50.064Z,11.20
2022-11-05T08:51:50.038Z,10.30
2022-11-05T08:52:50.077Z,10.50
2022-11-05T08:53:50.097Z,8.60
2022-11-05T08:54:50.000Z,10.20
2022-11-05T08:55:50.027Z,8.50
2022-11-05T08:56:49.962Z,8.60
2022-11-05T08:57:49.976Z,8.50
2022-11-05T08:58:49.934Z,8.60
2022-11-05T08:59:49.977Z,7.20
2022-11-05T09:00:49.969Z,7.80
2022-11-05T09:01:49.965Z,7.40
2022-11-05T09:02:49.905Z,8.60
2022-11-05T09:03:49.859Z,7.60
2022-11-05T09:04:49.852Z,7.90
2022-11-05T09:05:49.819Z,6.40
2022-11-05T09:06:49.831Z,7.50
2022-11-05T09:07:49.823Z,5.30
2022-11-05T09:08:49.834Z,8.70
2022-11-05T09:09:49.762Z,8.70
2022-11-05T09:10:49.795Z,8.80
2022-11-05T09:12:11.087Z,8.40
2022-11-05T09:12:51.755Z,7.00
2022-11-05T09:13:49.710Z,8.50
2022-11-05T09:14:49.678Z,9.50
2022-11-05T09:15:49.675Z,7.80
2022-11-05T09:16:49.639Z,7.50
2022-11-05T09:17:49.823Z,7.00
2022-11-05T09:18:49.644Z,7.40
2022-11-05T09:19:49.597Z,8.00
2022-11-05T09:20:50.587Z,8.70
2022-11-05T09:21:49.559Z,5.80
2022-11-05T09:22:49.573Z,8.40
2022-11-05T09:23:49.618Z,6.80
2022-11-05T09:24:50.543Z,7.50
2022-11-05T09:25:49.497Z,6.20
2022-11-05T09:26:49.505Z,6.50
2022-11-05T09:27:49.510Z,6.90
2022-11-05T09:28:50.218Z,8.30
2022-11-05T09:29:49.435Z,7.40
2022-11-05T09:30:49.416Z,6.80
2022-11-05T09:31:49.419Z,6.30
2022-11-05T09:32:49.432Z,6.80
2022-11-05T09:33:49.388Z,6.70
2022-11-05T09:34:49.358Z,8.30
2022-11-05T09:35:49.346Z,7.70
2022-11-05T09:36:49.383Z,7.60
2022-11-05T09:37:49.353Z,6.60
2022-11-05T09:38:49.318Z,6.40
2022-11-05T09:39:49.286Z,5.40
2022-11-05T09:40:49.257Z,5.40
2022-11-05T09:41:49.258Z,5.80
2022-11-05T09:42:49.261Z,4.60
2022-11-05T09:43:49.216Z,6.30
2022-11-05T09:44:49.202Z,6.40
2022-11-05T09:45:49.192Z,5.70
2022-11-05T09:46:49.192Z,7.00
2022-11-05T09:47:49.181Z,6.70
2022-11-05T09:48:49.135Z,6.00
2022-11-05T09:49:49.138Z,5.70
2022-11-05T09:50:49.114Z,6.00
2022-11-05T09:51:49.100Z,5.10
2022-11-05T09:52:49.104Z,4.70
2022-11-05T09:53:49.062Z,5.40
2022-11-05T09:54:49.041Z,4.30
2022-11-05T09:55:49.024Z,5.00
2022-11-05T09:56:49.012Z,6.20
2022-11-05T09:57:49.038Z,6.40
2022-11-05T09:58:48.993Z,5.00
2022-11-05T09:59:48.970Z,5.90
2022-11-05T10:00:49.007Z,6.10
2022-11-05T10:01:49.057Z,5.20
2022-11-05T10:02:48.966Z,7.50
2022-11-05T10:03:48.924Z,6.10
2022-11-05T10:04:49.109Z,6.00
2022-11-05T10:05:48.987Z,4.60
2022-11-05T10:06:48.862Z,4.30
2022-11-05T10:07:48.878Z,6.50
2022-11-05T10:08:48.825Z,6.70
2022-11-05T10:09:48.831Z,4.30
2022-11-05T10:10:48.820Z,5.30
2022-11-05T10:11:48.779Z,5.80
2022-11-05T10:12:48.792Z,5.00
2022-11-05T10:13:48.758Z,5.50
2022-11-05T10:14:48.750Z,4.00
2022-11-05T10:15:48.721Z,6.60
2022-11-05T10:16:48.710Z,6.30
2022-11-05T10:17:48.714Z,6.00
2022-11-05T10:18:48.675Z,5.00
2022-11-05T10:19:48.654Z,5.40
2022-11-05T10:20:48.648Z,4.40
2022-11-05T10:22:50.627Z,5.30
2022-11-05T10:23:49.587Z,5.30
2022-11-05T10:24:48.580Z,4.90
2022-11-05T10:25:48.573Z,5.30
2022-11-05T10:26:48.553Z,5.60
2022-11-05T10:27:48.563Z,3.70
2022-11-05T10:28:48.581Z,4.30
2022-11-05T10:29:48.495Z,6.20
2022-11-05T10:30:48.476Z,5.70
2022-11-05T10:31:48.476Z,6.40
2022-11-05T10:32:48.479Z,6.80
2022-11-05T10:33:48.428Z,5.50
2022-11-05T10:34:48.424Z,6.80
2022-11-05T10:35:48.406Z,5.70
2022-11-05T10:36:48.401Z,6.40
2022-11-05T10:37:48.396Z,7.20
2022-11-05T10:38:48.364Z,5.20
2022-11-05T10:39:48.337Z,4.70
2022-11-05T10:40:48.312Z,7.00
2022-11-05T10:41:48.299Z,4.00
2022-11-05T10:42:48.302Z,5.80
2022-11-05T10:43:48.262Z,5.60
2022-11-05T10:44:48.245Z,5.50
2022-11-05T10:45:48.239Z,5.50
2022-11-05T10:46:48.214Z,5.30
2022-11-05T10:47:48.229Z,5.00
2022-11-05T10:48:48.180Z,5.70
2022-11-05T10:49:48.177Z,4.20
2022-11-05T10:50:48.152Z,3.70
2022-11-05T10:51:48.139Z,6.20
2022-11-05T10:52:48.144Z,6.50
2022-11-05T10:53:48.112Z,4.30
2022-11-05T10:54:48.085Z,5.60
2022-11-05T10:55:48.113Z,4.20
2022-11-05T10:56:48.061Z,3.20
2022-11-05T10:57:48.073Z,2.80
2022-11-05T10:58:48.043Z,4.00
2022-11-05T10:59:48.001Z,4.30
2022-11-05T11:00:48.197Z,3.00
2022-11-05T11:01:48.208Z,4.10
2022-11-05T11:02:47.981Z,3.60
2022-11-05T11:03:47.949Z,4.50
2022-11-05T11:04:47.919Z,3.70
2022-11-05T11:05:47.916Z,4.40
2022-11-05T11:06:47.882Z,3.50
2022-11-05T11:07:47.899Z,5.70
2022-11-05T11:08:47.850Z,2.90
2022-11-05T11:09:47.851Z,3.30
2022-11-05T11:10:47.818Z,2.80
2022-11-05T11:11:47.813Z,3.50
2022-11-05T11:12:47.819Z,3.40
2022-11-05T11:13:47.771Z,3.70
2022-11-05T11:14:47.756Z,3.00
2022-11-05T11:15:47.755Z,3.30
2022-11-05T11:16:47.721Z,4.30
2022-11-05T11:17:47.748Z,5.80
2022-11-05T11:18:47.705Z,5.80
2022-11-05T11:19:47.673Z,4.50
2022-11-05T11:20:47.669Z,3.70
2022-11-05T11:21:47.640Z,3.40
2022-11-05T11:22:47.671Z,4.50
2022-11-05T11:23:47.604Z,2.70
2022-11-05T11:24:47.594Z,4.60
2022-11-05T11:25:47.573Z,4.70
2022-11-05T11:26:47.559Z,3.10
2022-11-05T11:27:47.565Z,4.20
2022-11-05T11:28:47.517Z,4.40
2022-11-05T11:29:49.596Z,4.10
2022-11-05T11:30:48.480Z,9.30
2022-11-05T11:31:47.483Z,10.50
2022-11-05T11:32:47.464Z,5.30
2022-11-05T11:33:47.463Z,5.30
2022-11-05T11:34:47.466Z,4.00
2022-11-05T11:35:47.446Z,4.70
2022-11-05T11:36:47.383Z,4.90
2022-11-05T11:37:47.375Z,3.80
2022-11-05T11:38:47.448Z,4.00
2022-11-05T11:39:47.341Z,3.80
2022-11-05T11:40:47.344Z,4.80
2022-11-05T11:41:48.309Z,3.80
2022-11-05T11:42:47.316Z,4.10
2022-11-05T11:43:47.269Z,3.90
2022-11-05T11:44:47.397Z,3.30
2022-11-05T11:45:47.269Z,3.70
2022-11-05T11:46:48.160Z,4.40
2022-11-05T11:47:48.161Z,5.40
2022-11-05T11:48:47.313Z,4.40
2022-11-05T11:49:47.172Z,4.50
2022-11-05T11:50:47.157Z,5.30
2022-11-05T11:51:50.156Z,5.00
2022-11-05T11:52:48.154Z,6.60
2022-11-05T11:53:47.127Z,4.80
2022-11-05T11:54:47.095Z,4.80
2022-11-05T11:55:47.101Z,4.30
2022-11-05T11:56:47.155Z,5.90
2022-11-05T11:57:47.073Z,6.70
2022-11-05T11:58:47.026Z,9.10
2022-11-05T12:00:07.884Z,9.80
2022-11-05T12:00:49.011Z,9.40
2022-11-05T12:01:47.023Z,8.40
2022-11-05T12:02:47.024Z,6.00
2022-11-05T12:03:46.956Z,6.30
2022-11-05T12:04:46.949Z,4.70
2022-11-05T12:05:46.951Z,4.20
2022-11-05T12:06:46.906Z,6.70
2022-11-05T12:07:46.952Z,8.50
2022-11-05T12:08:49.492Z,4.60
2022-11-05T12:09:47.866Z,5.00
2022-11-05T12:10:46.853Z,3.90
2022-11-05T12:11:46.863Z,5.90
2022-11-05T12:12:46.822Z,5.70
2022-11-05T12:13:46.826Z,4.00
2022-11-05T12:14:46.940Z,5.70
2022-11-05T12:15:46.746Z,4.90
2022-11-05T12:16:46.738Z,7.00
2022-11-05T12:17:46.744Z,5.30
2022-11-05T12:18:46.739Z,5.80
2022-11-05T12:19:46.798Z,4.50
2022-11-05T12:20:48.356Z,4.80
2022-11-05T12:21:52.909Z,6.40
2022-11-05T12:22:48.664Z,4.20
2022-11-05T12:23:46.630Z,5.60
2022-11-05T12:24:46.606Z,6.20
2022-11-05T12:25:46.590Z,5.40
2022-11-05T12:26:46.589Z,5.90
2022-11-05T12:27:46.590Z,5.10
2022-11-05T12:29:16.546Z,4.50
2022-11-05T12:29:48.530Z,5.20
2022-11-05T12:30:46.543Z,5.00
2022-11-05T12:31:46.489Z,4.50
2022-11-05T12:32:46.631Z,5.00
2022-11-05T12:33:46.457Z,6.30
2022-11-05T12:34:46.436Z,5.00
2022-11-05T12:35:49.860Z,5.20
2022-11-05T12:36:48.431Z,5.80
2022-11-05T12:37:47.432Z,5.80
2022-11-05T12:38:46.369Z,5.00
2022-11-05T12:39:46.400Z,4.80
2022-11-05T12:40:46.336Z,5.60
2022-11-05T12:41:46.333Z,5.10
2022-11-05T12:42:46.341Z,4.80
2022-11-05T12:43:46.350Z,5.10
2022-11-05T12:44:46.306Z,5.60
2022-11-05T12:45:46.249Z,4.00
2022-11-05T12:46:46.233Z,6.40
2022-11-05T12:47:46.237Z,5.60
2022-11-05T12:48:46.200Z,5.50
2022-11-05T12:49:46.184Z,4.50
2022-11-05T12:50:46.164Z,5.60
2022-11-05T12:51:46.169Z,6.40
2022-11-05T12:52:46.177Z,4.30
2022-11-05T12:53:46.115Z,4.90
2022-11-05T12:54:46.125Z,6.00
2022-11-05T12:55:48.696Z,6.80
2022-11-05T12:56:47.080Z,6.80
2022-11-05T12:57:46.084Z,6.30
2022-11-05T12:58:46.034Z,5.90
2022-11-05T12:59:46.018Z,5.30
2022-11-05T13:00:46.119Z,5.80
2022-11-05T13:01:46.112Z,6.30